sensor_id;sensor_type;location;lat;lon;timestamp;temperature;humidity
18153;DHT22;9202;51.578;7.734;2022-09-12T00:02:59;12.30;99.90
18153;DHT22;9202;51.578;7.734;2022-09-12T00:05:02;12.30;99.90
18153;DHT22;9202;51.578;7.734;2022-09-12T00:07:07;12.30;99.90
18153;DHT22;9202;51.578;7.734;2022-09-12T00:09:11;12.30;99.90
18153;DHT22;9202;51.578;7.734;2022-09-12T00:11:15;12.20;99.90
18153;DHT22;9202;51.578;7.734;2022-09-12T00:13:19;12.30;99.90
18153;DHT22;9202;51.578;7.734;2022-09-12T00:15:22;12.20;99.90
18153;DHT22;9202;51.578;7.734;2022-09-12T00:17:26;12.30;99.90
18153;DHT22;9202;51.578;7.734;2022-09-12T00:21:47;12.20;99.90
18153;DHT22;9202;51.578;7.734;2022-09-12T00:23:51;12.30;99.90
18153;DHT22;9202;51.578;7.734;2022-09-12T00:25:54;12.30;99.90
18153;DHT22;9202;51.578;7.734;2022-09-12T00:27:57;12.30;99.90
18153;DHT22;9202;51.578;7.734;2022-09-12T00:30:01;12.30;99.90
18153;DHT22;9202;51.578;7.734;2022-09-12T00:32:04;12.20;99.90
18153;DHT22;9202;51.578;7.734;2022-09-12T00:34:08;12.20;99.90
18153;DHT22;9202;51.578;7.734;2022-09-12T00:36:13;12.20;99.90
18153;DHT22;9202;51.578;7.734;2022-09-12T00:38:18;12.20;99.90
18153;DHT22;9202;51.578;7.734;2022-09-12T00:40:22;12.20;99.90
18153;DHT22;9202;51.578;7.734;2022-09-12T00:42:25;12.10;99.90
18153;DHT22;9202;51.578;7.734;2022-09-12T00:47:21;12.10;99.90
18153;DHT22;9202;51.578;7.734;2022-09-12T00:49:28;12.10;99.90
18153;DHT22;9202;51.578;7.734;2022-09-12T00:51:36;12.00;99.90
18153;DHT22;9202;51.578;7.734;2022-09-12T00:53:40;12.00;99.90
18153;DHT22;9202;51.578;7.734;2022-09-12T00:55:49;12.00;99.90
18153;DHT22;9202;51.578;7.734;2022-09-12T01:00:16;11.90;99.90
18153;DHT22;9202;51.578;7.734;2022-09-12T01:02:21;11.90;99.90
18153;DHT22;9202;51.578;7.734;2022-09-12T01:04:25;11.80;99.90
18153;DHT22;9202;51.578;7.734;2022-09-12T01:08:53;11.80;99.90
18153;DHT22;9202;51.578;7.734;2022-09-12T01:10:57;11.80;99.90
18153;DHT22;9202;51.578;7.734;2022-09-12T01:13:03;11.80;99.90
18153;DHT22;9202;51.578;7.734;2022-09-12T01:15:08;11.80;99.90
18153;DHT22;9202;51.578;7.734;2022-09-12T01:17:13;11.80;99.90
18153;DHT22;9202;51.578;7.734;2022-09-12T01:22:01;11.80;99.90
18153;DHT22;9202;51.578;7.734;2022-09-12T01:27:09;11.70;99.90
18153;DHT22;9202;51.578;7.734;2022-09-12T01:31:44;11.60;99.90
18153;DHT22;9202;51.578;7.734;2022-09-12T01:33:59;11.60;99.90
18153;DHT22;9202;51.578;7.734;2022-09-12T01:38:53;11.50;99.90
18153;DHT22;9202;51.578;7.734;2022-09-12T01:41:01;11.50;99.90
18153;DHT22;9202;51.578;7.734;2022-09-12T01:43:13;11.50;99.90
18153;DHT22;9202;51.578;7.734;2022-09-12T01:45:17;11.40;99.90
18153;DHT22;9202;51.578;7.734;2022-09-12T01:47:24;11.30;99.90
18153;DHT22;9202;51.578;7.734;2022-09-12T01:51:55;11.20;99.90
18153;DHT22;9202;51.578;7.734;2022-09-12T01:54:04;11.10;99.90
18153;DHT22;9202;51.578;7.734;2022-09-12T01:56:10;11.10;99.90
18153;DHT22;9202;51.578;7.734;2022-09-12T01:58:17;11.00;99.90
18153;DHT22;9202;51.578;7.734;2022-09-12T02:00:21;11.00;99.90
18153;DHT22;9202;51.578;7.734;2022-09-12T02:05:01;10.90;99.90
18153;DHT22;9202;51.578;7.734;2022-09-12T02:07:12;10.90;99.90
18153;DHT22;9202;51.578;7.734;2022-09-12T02:09:20;10.90;99.90
18153;DHT22;9202;51.578;7.734;2022-09-12T02:11:38;10.90;99.90
18153;DHT22;9202;51.578;7.734;2022-09-12T02:14:07;10.90;99.90
18153;DHT22;9202;51.578;7.734;2022-09-12T02:16:24;10.90;99.90
18153;DHT22;9202;51.578;7.734;2022-09-12T02:18:29;10.90;99.90
18153;DHT22;9202;51.578;7.734;2022-09-12T02:20:36;10.90;99.90
18153;DHT22;9202;51.578;7.734;2022-09-12T02:25:03;10.90;99.90
18153;DHT22;9202;51.578;7.734;2022-09-12T02:27:10;10.90;99.90
18153;DHT22;9202;51.578;7.734;2022-09-12T02:29:15;10.90;99.90
18153;DHT22;9202;51.578;7.734;2022-09-12T02:31:22;10.90;99.90
18153;DHT22;9202;51.578;7.734;2022-09-12T02:33:31;10.90;99.90
18153;DHT22;9202;51.578;7.734;2022-09-12T02:37:58;10.90;99.90
18153;DHT22;9202;51.578;7.734;2022-09-12T02:40:03;10.90;99.90
18153;DHT22;9202;51.578;7.734;2022-09-12T02:42:08;10.90;99.90
18153;DHT22;9202;51.578;7.734;2022-09-12T02:44:12;10.80;99.90
18153;DHT22;9202;51.578;7.734;2022-09-12T02:46:19;10.80;99.90
18153;DHT22;9202;51.578;7.734;2022-09-12T02:48:25;10.80;99.90
18153;DHT22;9202;51.578;7.734;2022-09-12T02:50:29;10.80;99.90
18153;DHT22;9202;51.578;7.734;2022-09-12T02:52:34;10.70;99.90
18153;DHT22;9202;51.578;7.734;2022-09-12T02:54:38;10.70;99.90
18153;DHT22;9202;51.578;7.734;2022-09-12T02:56:42;10.60;99.90
18153;DHT22;9202;51.578;7.734;2022-09-12T02:58:47;10.60;99.90
18153;DHT22;9202;51.578;7.734;2022-09-12T03:00:53;10.70;99.90
18153;DHT22;9202;51.578;7.734;2022-09-12T03:03:10;10.70;99.90
18153;DHT22;9202;51.578;7.734;2022-09-12T03:08:00;10.70;99.90
18153;DHT22;9202;51.578;7.734;2022-09-12T03:12:35;10.70;99.90
18153;DHT22;9202;51.578;7.734;2022-09-12T03:17:08;10.80;99.90
18153;DHT22;9202;51.578;7.734;2022-09-12T03:19:18;10.80;99.90
18153;DHT22;9202;51.578;7.734;2022-09-12T03:21:24;10.80;99.90
18153;DHT22;9202;51.578;7.734;2022-09-12T03:23:32;10.70;99.90
18153;DHT22;9202;51.578;7.734;2022-09-12T03:28:00;10.70;99.90
18153;DHT22;9202;51.578;7.734;2022-09-12T03:30:08;10.70;99.90
18153;DHT22;9202;51.578;7.734;2022-09-12T03:32:12;10.70;99.90
18153;DHT22;9202;51.578;7.734;2022-09-12T03:34:16;10.60;99.90
18153;DHT22;9202;51.578;7.734;2022-09-12T03:36:23;10.50;99.90
18153;DHT22;9202;51.578;7.734;2022-09-12T03:38:26;10.60;99.90
18153;DHT22;9202;51.578;7.734;2022-09-12T03:40:30;10.50;99.90
18153;DHT22;9202;51.578;7.734;2022-09-12T03:42:33;10.50;99.90
18153;DHT22;9202;51.578;7.734;2022-09-12T03:46:53;10.50;99.90
18153;DHT22;9202;51.578;7.734;2022-09-12T03:48:57;10.50;99.90
18153;DHT22;9202;51.578;7.734;2022-09-12T03:51:01;10.50;99.90
18153;DHT22;9202;51.578;7.734;2022-09-12T03:53:05;10.60;99.90
18153;DHT22;9202;51.578;7.734;2022-09-12T03:55:08;10.60;99.90
18153;DHT22;9202;51.578;7.734;2022-09-12T03:57:12;10.60;99.90
18153;DHT22;9202;51.578;7.734;2022-09-12T03:59:15;10.60;99.90
18153;DHT22;9202;51.578;7.734;2022-09-12T04:04:05;10.60;99.90
18153;DHT22;9202;51.578;7.734;2022-09-12T04:06:10;10.70;99.90
18153;DHT22;9202;51.578;7.734;2022-09-12T04:08:13;10.70;99.90
18153;DHT22;9202;51.578;7.734;2022-09-12T04:10:17;10.60;99.90
18153;DHT22;9202;51.578;7.734;2022-09-12T04:12:20;10.70;99.90
18153;DHT22;9202;51.578;7.734;2022-09-12T04:14:24;10.70;99.90
18153;DHT22;9202;51.578;7.734;2022-09-12T04:16:27;10.60;99.90
18153;DHT22;9202;51.578;7.734;2022-09-12T04:18:31;10.60;99.90
18153;DHT22;9202;51.578;7.734;2022-09-12T04:20:36;10.60;99.90
18153;DHT22;9202;51.578;7.734;2022-09-12T04:24:56;10.60;99.90
18153;DHT22;9202;51.578;7.734;2022-09-12T04:26:59;10.70;99.90
18153;DHT22;9202;51.578;7.734;2022-09-12T04:29:05;10.60;99.90
18153;DHT22;9202;51.578;7.734;2022-09-12T04:31:12;10.60;99.90
18153;DHT22;9202;51.578;7.734;2022-09-12T04:33:15;10.70;99.90
18153;DHT22;9202;51.578;7.734;2022-09-12T04:35:18;10.60;99.90
18153;DHT22;9202;51.578;7.734;2022-09-12T04:37:22;10.60;99.90
18153;DHT22;9202;51.578;7.734;2022-09-12T04:39:26;10.70;99.90
18153;DHT22;9202;51.578;7.734;2022-09-12T04:41:31;10.60;99.90
18153;DHT22;9202;51.578;7.734;2022-09-12T04:43:35;10.60;99.90
18153;DHT22;9202;51.578;7.734;2022-09-12T04:47:55;10.60;99.90
18153;DHT22;9202;51.578;7.734;2022-09-12T04:49:59;10.60;99.90
18153;DHT22;9202;51.578;7.734;2022-09-12T04:52:03;10.50;99.90
18153;DHT22;9202;51.578;7.734;2022-09-12T04:54:08;10.50;99.90
18153;DHT22;9202;51.578;7.734;2022-09-12T04:56:12;10.50;99.90
18153;DHT22;9202;51.578;7.734;2022-09-12T04:58:16;10.50;99.90
18153;DHT22;9202;51.578;7.734;2022-09-12T05:00:20;10.50;99.90
18153;DHT22;9202;51.578;7.734;2022-09-12T05:02:23;10.60;99.90
18153;DHT22;9202;51.578;7.734;2022-09-12T05:04:27;10.60;99.90
18153;DHT22;9202;51.578;7.734;2022-09-12T05:06:32;10.60;99.90
18153;DHT22;9202;51.578;7.734;2022-09-12T05:08:36;10.50;99.90
18153;DHT22;9202;51.578;7.734;2022-09-12T05:10:39;10.50;99.90
18153;DHT22;9202;51.578;7.734;2022-09-12T05:12:43;10.40;99.90
18153;DHT22;9202;51.578;7.734;2022-09-12T05:17:04;10.40;99.90
18153;DHT22;9202;51.578;7.734;2022-09-12T05:19:08;10.30;99.90
18153;DHT22;9202;51.578;7.734;2022-09-12T05:21:15;10.30;99.90
18153;DHT22;9202;51.578;7.734;2022-09-12T05:23:18;10.30;99.90
18153;DHT22;9202;51.578;7.734;2022-09-12T05:25:22;10.30;99.90
18153;DHT22;9202;51.578;7.734;2022-09-12T05:27:25;10.30;99.90
18153;DHT22;9202;51.578;7.734;2022-09-12T05:29:29;10.30;99.90
18153;DHT22;9202;51.578;7.734;2022-09-12T05:31:32;10.30;99.90
18153;DHT22;9202;51.578;7.734;2022-09-12T05:33:37;10.40;99.90
18153;DHT22;9202;51.578;7.734;2022-09-12T05:37:57;10.50;99.90
18153;DHT22;9202;51.578;7.734;2022-09-12T05:40:00;10.50;99.90
18153;DHT22;9202;51.578;7.734;2022-09-12T05:42:06;10.50;99.90
18153;DHT22;9202;51.578;7.734;2022-09-12T05:44:12;10.50;99.90
18153;DHT22;9202;51.578;7.734;2022-09-12T05:46:18;10.60;99.90
18153;DHT22;9202;51.578;7.734;2022-09-12T05:48:23;10.60;99.90
18153;DHT22;9202;51.578;7.734;2022-09-12T05:50:26;10.60;99.90
18153;DHT22;9202;51.578;7.734;2022-09-12T05:52:31;10.70;99.90
18153;DHT22;9202;51.578;7.734;2022-09-12T05:54:35;10.70;99.90
18153;DHT22;9202;51.578;7.734;2022-09-12T05:56:39;10.80;99.90
18153;DHT22;9202;51.578;7.734;2022-09-12T06:01:05;11.00;99.90
18153;DHT22;9202;51.578;7.734;2022-09-12T06:03:09;11.10;99.90
18153;DHT22;9202;51.578;7.734;2022-09-12T06:05:13;11.20;99.90
18153;DHT22;9202;51.578;7.734;2022-09-12T06:07:17;11.30;99.90
18153;DHT22;9202;51.578;7.734;2022-09-12T06:09:20;11.40;99.90
18153;DHT22;9202;51.578;7.734;2022-09-12T06:11:26;11.50;99.90
18153;DHT22;9202;51.578;7.734;2022-09-12T06:15:51;11.70;99.90
18153;DHT22;9202;51.578;7.734;2022-09-12T06:17:57;11.70;99.90
18153;DHT22;9202;51.578;7.734;2022-09-12T06:20:01;11.70;99.90
18153;DHT22;9202;51.578;7.734;2022-09-12T06:22:06;11.70;99.90
18153;DHT22;9202;51.578;7.734;2022-09-12T06:24:11;11.80;99.90
18153;DHT22;9202;51.578;7.734;2022-09-12T06:26:16;11.90;99.90
18153;DHT22;9202;51.578;7.734;2022-09-12T06:28:23;12.10;99.90
18153;DHT22;9202;51.578;7.734;2022-09-12T06:30:28;12.30;99.90
18153;DHT22;9202;51.578;7.734;2022-09-12T06:32:33;12.40;99.90
18153;DHT22;9202;51.578;7.734;2022-09-12T06:34:38;12.40;99.90
18153;DHT22;9202;51.578;7.734;2022-09-12T06:36:44;12.50;99.90
18153;DHT22;9202;51.578;7.734;2022-09-12T06:41:12;12.70;99.90
18153;DHT22;9202;51.578;7.734;2022-09-12T06:43:16;12.80;99.90
18153;DHT22;9202;51.578;7.734;2022-09-12T06:45:24;13.00;99.90
18153;DHT22;9202;51.578;7.734;2022-09-12T06:47:29;13.00;99.90
18153;DHT22;9202;51.578;7.734;2022-09-12T06:49:34;13.20;99.90
18153;DHT22;9202;51.578;7.734;2022-09-12T06:51:39;13.30;99.90
18153;DHT22;9202;51.578;7.734;2022-09-12T06:53:46;13.40;99.90
18153;DHT22;9202;51.578;7.734;2022-09-12T06:55:55;13.60;99.90
18153;DHT22;9202;51.578;7.734;2022-09-12T06:58:00;13.70;99.90
18153;DHT22;9202;51.578;7.734;2022-09-12T07:00:07;13.90;99.90
18153;DHT22;9202;51.578;7.734;2022-09-12T07:02:11;14.00;99.90
18153;DHT22;9202;51.578;7.734;2022-09-12T07:04:16;14.10;99.90
18153;DHT22;9202;51.578;7.734;2022-09-12T07:06:22;14.20;99.90
18153;DHT22;9202;51.578;7.734;2022-09-12T07:08:27;14.40;99.90
18153;DHT22;9202;51.578;7.734;2022-09-12T07:12:49;14.60;99.90
18153;DHT22;9202;51.578;7.734;2022-09-12T07:14:53;14.70;99.90
18153;DHT22;9202;51.578;7.734;2022-09-12T07:16:56;14.80;99.90
18153;DHT22;9202;51.578;7.734;2022-09-12T07:19:01;14.70;99.90
18153;DHT22;9202;51.578;7.734;2022-09-12T07:21:07;14.80;99.90
18153;DHT22;9202;51.578;7.734;2022-09-12T07:23:12;14.90;99.90
18153;DHT22;9202;51.578;7.734;2022-09-12T07:25:15;14.90;99.90
18153;DHT22;9202;51.578;7.734;2022-09-12T07:27:19;15.00;99.90
18153;DHT22;9202;51.578;7.734;2022-09-12T07:29:22;15.00;99.90
18153;DHT22;9202;51.578;7.734;2022-09-12T07:31:28;15.00;99.90
18153;DHT22;9202;51.578;7.734;2022-09-12T07:33:31;15.10;99.90
18153;DHT22;9202;51.578;7.734;2022-09-12T07:35:35;15.20;99.90
18153;DHT22;9202;51.578;7.734;2022-09-12T07:37:39;15.30;99.90
18153;DHT22;9202;51.578;7.734;2022-09-12T07:39:42;15.30;99.90
18153;DHT22;9202;51.578;7.734;2022-09-12T07:41:49;15.50;99.90
18153;DHT22;9202;51.578;7.734;2022-09-12T07:43:54;15.40;99.90
18153;DHT22;9202;51.578;7.734;2022-09-12T07:45:58;15.60;99.90
18153;DHT22;9202;51.578;7.734;2022-09-12T07:48:02;15.60;99.90
18153;DHT22;9202;51.578;7.734;2022-09-12T07:52:23;15.90;99.90
18153;DHT22;9202;51.578;7.734;2022-09-12T07:54:26;16.00;99.90
18153;DHT22;9202;51.578;7.734;2022-09-12T07:56:30;16.10;99.90
18153;DHT22;9202;51.578;7.734;2022-09-12T07:58:38;16.20;99.90
18153;DHT22;9202;51.578;7.734;2022-09-12T08:00:42;16.30;99.90
18153;DHT22;9202;51.578;7.734;2022-09-12T08:05:08;16.60;99.90
18153;DHT22;9202;51.578;7.734;2022-09-12T08:07:12;16.70;99.90
18153;DHT22;9202;51.578;7.734;2022-09-12T08:09:16;16.80;99.90
18153;DHT22;9202;51.578;7.734;2022-09-12T08:11:21;16.80;99.90
18153;DHT22;9202;51.578;7.734;2022-09-12T08:13:25;16.90;99.90
18153;DHT22;9202;51.578;7.734;2022-09-12T08:15:28;17.00;99.90
18153;DHT22;9202;51.578;7.734;2022-09-12T08:17:32;17.00;99.90
18153;DHT22;9202;51.578;7.734;2022-09-12T08:19:36;17.10;99.90
18153;DHT22;9202;51.578;7.734;2022-09-12T08:21:40;17.20;99.90
18153;DHT22;9202;51.578;7.734;2022-09-12T08:23:44;17.30;99.90
18153;DHT22;9202;51.578;7.734;2022-09-12T08:25:47;17.40;99.90
18153;DHT22;9202;51.578;7.734;2022-09-12T08:27:51;17.50;99.90
18153;DHT22;9202;51.578;7.734;2022-09-12T08:29:55;17.50;99.90
18153;DHT22;9202;51.578;7.734;2022-09-12T08:31:58;17.60;99.90
18153;DHT22;9202;51.578;7.734;2022-09-12T08:36:20;17.70;99.90
18153;DHT22;9202;51.578;7.734;2022-09-12T08:38:24;17.80;99.90
18153;DHT22;9202;51.578;7.734;2022-09-12T08:42:53;17.90;99.90
18153;DHT22;9202;51.578;7.734;2022-09-12T08:45:07;18.00;99.90
18153;DHT22;9202;51.578;7.734;2022-09-12T08:47:18;18.10;99.90
18153;DHT22;9202;51.578;7.734;2022-09-12T08:49:26;18.30;99.90
18153;DHT22;9202;51.578;7.734;2022-09-12T08:51:33;18.50;99.90
18153;DHT22;9202;51.578;7.734;2022-09-12T08:53:38;18.50;99.90
18153;DHT22;9202;51.578;7.734;2022-09-12T08:55:43;18.60;99.90
18153;DHT22;9202;51.578;7.734;2022-09-12T08:57:47;18.60;99.90
18153;DHT22;9202;51.578;7.734;2022-09-12T08:59:51;18.70;99.90
18153;DHT22;9202;51.578;7.734;2022-09-12T09:01:56;18.80;99.90
18153;DHT22;9202;51.578;7.734;2022-09-12T09:04:16;18.80;99.90
18153;DHT22;9202;51.578;7.734;2022-09-12T09:06:41;18.90;99.90
18153;DHT22;9202;51.578;7.734;2022-09-12T09:14:21;19.10;99.90
18153;DHT22;9202;51.578;7.734;2022-09-12T09:16:43;19.10;99.90
18153;DHT22;9202;51.578;7.734;2022-09-12T09:18:50;19.20;99.90
18153;DHT22;9202;51.578;7.734;2022-09-12T09:20:58;19.20;99.90
18153;DHT22;9202;51.578;7.734;2022-09-12T09:23:05;19.30;99.90
18153;DHT22;9202;51.578;7.734;2022-09-12T09:27:35;19.30;99.90
18153;DHT22;9202;51.578;7.734;2022-09-12T09:29:45;19.50;99.90
18153;DHT22;9202;51.578;7.734;2022-09-12T09:31:52;19.60;99.90
18153;DHT22;9202;51.578;7.734;2022-09-12T09:36:18;19.90;99.90
18153;DHT22;9202;51.578;7.734;2022-09-12T09:38:30;20.00;99.90
18153;DHT22;9202;51.578;7.734;2022-09-12T09:40:42;20.10;99.90
18153;DHT22;9202;51.578;7.734;2022-09-12T09:42:50;20.30;99.90
18153;DHT22;9202;51.578;7.734;2022-09-12T09:44:57;20.30;99.90
18153;DHT22;9202;51.578;7.734;2022-09-12T09:47:02;20.30;99.90
18153;DHT22;9202;51.578;7.734;2022-09-12T09:51:24;20.50;99.90
18153;DHT22;9202;51.578;7.734;2022-09-12T09:53:40;20.70;99.90
18153;DHT22;9202;51.578;7.734;2022-09-12T09:55:49;20.70;99.90
18153;DHT22;9202;51.578;7.734;2022-09-12T10:00:30;20.90;99.90
18153;DHT22;9202;51.578;7.734;2022-09-12T10:02:35;21.00;99.90
18153;DHT22;9202;51.578;7.734;2022-09-12T10:04:41;21.00;99.90
18153;DHT22;9202;51.578;7.734;2022-09-12T10:06:46;21.20;99.90
18153;DHT22;9202;51.578;7.734;2022-09-12T10:08:49;21.30;99.90
18153;DHT22;9202;51.578;7.734;2022-09-12T10:10:54;21.40;99.90
18153;DHT22;9202;51.578;7.734;2022-09-12T10:13:07;21.40;99.90
18153;DHT22;9202;51.578;7.734;2022-09-12T10:17:40;21.80;99.90
18153;DHT22;9202;51.578;7.734;2022-09-12T10:19:44;22.30;99.90
18153;DHT22;9202;51.578;7.734;2022-09-12T10:21:51;22.80;99.90
18153;DHT22;9202;51.578;7.734;2022-09-12T10:24:01;23.00;99.90
18153;DHT22;9202;51.578;7.734;2022-09-12T10:28:29;23.30;99.90
18153;DHT22;9202;51.578;7.734;2022-09-12T10:30:33;23.30;99.90
18153;DHT22;9202;51.578;7.734;2022-09-12T10:32:38;23.10;99.90
18153;DHT22;9202;51.578;7.734;2022-09-12T10:34:44;23.10;99.90
18153;DHT22;9202;51.578;7.734;2022-09-12T10:36:47;23.10;99.90
18153;DHT22;9202;51.578;7.734;2022-09-12T10:38:55;23.20;99.90
18153;DHT22;9202;51.578;7.734;2022-09-12T10:41:02;23.30;99.90
18153;DHT22;9202;51.578;7.734;2022-09-12T10:45:33;23.20;99.90
18153;DHT22;9202;51.578;7.734;2022-09-12T10:47:37;23.10;99.90
18153;DHT22;9202;51.578;7.734;2022-09-12T10:52:15;23.00;99.90
18153;DHT22;9202;51.578;7.734;2022-09-12T10:54:22;23.20;99.90
18153;DHT22;9202;51.578;7.734;2022-09-12T11:01:35;23.80;99.90
18153;DHT22;9202;51.578;7.734;2022-09-12T11:06:04;23.80;99.90
18153;DHT22;9202;51.578;7.734;2022-09-12T11:08:15;23.60;99.90
18153;DHT22;9202;51.578;7.734;2022-09-12T11:10:30;23.70;99.90
18153;DHT22;9202;51.578;7.734;2022-09-12T11:15:04;24.10;99.90
18153;DHT22;9202;51.578;7.734;2022-09-12T11:17:15;23.90;99.90
18153;DHT22;9202;51.578;7.734;2022-09-12T11:19:35;24.00;99.90
18153;DHT22;9202;51.578;7.734;2022-09-12T11:21:46;24.20;99.90
18153;DHT22;9202;51.578;7.734;2022-09-12T11:24:07;24.30;99.90
18153;DHT22;9202;51.578;7.734;2022-09-12T11:28:42;24.30;99.90
18153;DHT22;9202;51.578;7.734;2022-09-12T11:30:56;24.40;99.90
18153;DHT22;9202;51.578;7.734;2022-09-12T11:33:19;24.50;99.90
18153;DHT22;9202;51.578;7.734;2022-09-12T11:35:25;24.40;99.90
18153;DHT22;9202;51.578;7.734;2022-09-12T11:37:38;24.30;99.90
18153;DHT22;9202;51.578;7.734;2022-09-12T11:39:44;24.30;99.90
18153;DHT22;9202;51.578;7.734;2022-09-12T11:41:51;24.20;99.90
18153;DHT22;9202;51.578;7.734;2022-09-12T11:43:59;24.10;99.90
18153;DHT22;9202;51.578;7.734;2022-09-12T11:46:09;24.10;99.90
18153;DHT22;9202;51.578;7.734;2022-09-12T11:50:32;23.80;99.90
18153;DHT22;9202;51.578;7.734;2022-09-12T11:52:36;23.80;99.90
18153;DHT22;9202;51.578;7.734;2022-09-12T11:54:43;24.00;99.90
18153;DHT22;9202;51.578;7.734;2022-09-12T11:56:54;23.80;99.90
18153;DHT22;9202;51.578;7.734;2022-09-12T12:01:20;24.20;99.90
18153;DHT22;9202;51.578;7.734;2022-09-12T12:03:27;24.40;99.90
18153;DHT22;9202;51.578;7.734;2022-09-12T12:05:34;24.60;99.90
18153;DHT22;9202;51.578;7.734;2022-09-12T12:07:41;24.60;99.90
18153;DHT22;9202;51.578;7.734;2022-09-12T12:09:50;24.60;99.90
18153;DHT22;9202;51.578;7.734;2022-09-12T12:11:56;24.60;99.90
18153;DHT22;9202;51.578;7.734;2022-09-12T12:14:02;24.50;99.90
18153;DHT22;9202;51.578;7.734;2022-09-12T12:16:13;24.60;99.90
18153;DHT22;9202;51.578;7.734;2022-09-12T12:20:35;24.40;99.90
18153;DHT22;9202;51.578;7.734;2022-09-12T12:22:40;24.10;99.90
18153;DHT22;9202;51.578;7.734;2022-09-12T12:25:21;24.20;99.90
18153;DHT22;9202;51.578;7.734;2022-09-12T12:27:24;24.20;99.90
18153;DHT22;9202;51.578;7.734;2022-09-12T12:29:42;24.20;99.90
18153;DHT22;9202;51.578;7.734;2022-09-12T12:34:30;24.40;99.90
18153;DHT22;9202;51.578;7.734;2022-09-12T12:36:41;24.60;99.90
18153;DHT22;9202;51.578;7.734;2022-09-12T12:38:44;24.60;99.90
18153;DHT22;9202;51.578;7.734;2022-09-12T12:40:48;24.70;99.90
18153;DHT22;9202;51.578;7.734;2022-09-12T12:43:30;24.70;99.90
18153;DHT22;9202;51.578;7.734;2022-09-12T12:48:21;24.30;99.90
18153;DHT22;9202;51.578;7.734;2022-09-12T12:50:27;24.10;99.90
18153;DHT22;9202;51.578;7.734;2022-09-12T12:52:32;24.00;99.90
18153;DHT22;9202;51.578;7.734;2022-09-12T12:54:55;24.00;99.90
18153;DHT22;9202;51.578;7.734;2022-09-12T12:57:14;24.10;99.90
18153;DHT22;9202;51.578;7.734;2022-09-12T12:59:20;24.20;99.90
18153;DHT22;9202;51.578;7.734;2022-09-12T13:01:25;24.50;99.90
18153;DHT22;9202;51.578;7.734;2022-09-12T13:03:31;24.50;99.90
18153;DHT22;9202;51.578;7.734;2022-09-12T13:05:40;24.60;99.90
18153;DHT22;9202;51.578;7.734;2022-09-12T13:07:44;24.40;99.90
18153;DHT22;9202;51.578;7.734;2022-09-12T13:09:51;24.50;99.90
18153;DHT22;9202;51.578;7.734;2022-09-12T13:11:58;24.40;99.90
18153;DHT22;9202;51.578;7.734;2022-09-12T13:14:04;24.60;99.90
18153;DHT22;9202;51.578;7.734;2022-09-12T13:16:10;24.50;99.90
18153;DHT22;9202;51.578;7.734;2022-09-12T13:18:17;24.30;99.90
18153;DHT22;9202;51.578;7.734;2022-09-12T13:22:39;24.50;99.90
18153;DHT22;9202;51.578;7.734;2022-09-12T13:24:45;24.50;99.90
18153;DHT22;9202;51.578;7.734;2022-09-12T13:26:50;24.40;99.90
18153;DHT22;9202;51.578;7.734;2022-09-12T13:31:40;24.80;99.90
18153;DHT22;9202;51.578;7.734;2022-09-12T13:36:28;24.90;99.90
18153;DHT22;9202;51.578;7.734;2022-09-12T13:38:39;24.70;99.90
18153;DHT22;9202;51.578;7.734;2022-09-12T13:43:12;24.40;99.90
18153;DHT22;9202;51.578;7.734;2022-09-12T13:47:38;24.60;99.90
18153;DHT22;9202;51.578;7.734;2022-09-12T13:49:43;24.70;99.90
18153;DHT22;9202;51.578;7.734;2022-09-12T13:51:55;24.90;99.90
18153;DHT22;9202;51.578;7.734;2022-09-12T13:56:18;24.90;99.90
18153;DHT22;9202;51.578;7.734;2022-09-12T13:58:24;25.00;99.90
18153;DHT22;9202;51.578;7.734;2022-09-12T14:00:29;25.00;99.90
18153;DHT22;9202;51.578;7.734;2022-09-12T14:02:35;25.00;99.90
18153;DHT22;9202;51.578;7.734;2022-09-12T14:04:39;25.00;99.90
18153;DHT22;9202;51.578;7.734;2022-09-12T14:07:17;25.00;99.90
18153;DHT22;9202;51.578;7.734;2022-09-12T14:09:23;25.00;99.90
18153;DHT22;9202;51.578;7.734;2022-09-12T14:13:45;24.90;99.90
18153;DHT22;9202;51.578;7.734;2022-09-12T14:15:50;24.90;99.90
18153;DHT22;9202;51.578;7.734;2022-09-12T14:17:56;24.90;99.90
18153;DHT22;9202;51.578;7.734;2022-09-12T14:20:05;25.00;99.90
18153;DHT22;9202;51.578;7.734;2022-09-12T14:22:11;25.00;99.90
18153;DHT22;9202;51.578;7.734;2022-09-12T14:24:17;25.00;99.90
18153;DHT22;9202;51.578;7.734;2022-09-12T14:26:22;24.80;99.90
18153;DHT22;9202;51.578;7.734;2022-09-12T14:28:30;24.70;99.90
18153;DHT22;9202;51.578;7.734;2022-09-12T14:33:17;24.90;99.90
18153;DHT22;9202;51.578;7.734;2022-09-12T14:35:22;25.00;99.90
18153;DHT22;9202;51.578;7.734;2022-09-12T14:39:43;25.00;99.90
18153;DHT22;9202;51.578;7.734;2022-09-12T14:41:48;25.00;99.90
18153;DHT22;9202;51.578;7.734;2022-09-12T14:43:55;25.10;99.90
18153;DHT22;9202;51.578;7.734;2022-09-12T14:46:02;25.00;99.90
18153;DHT22;9202;51.578;7.734;2022-09-12T14:48:13;25.00;99.90
18153;DHT22;9202;51.578;7.734;2022-09-12T14:50:24;24.90;99.90
18153;DHT22;9202;51.578;7.734;2022-09-12T14:54:56;24.90;99.90
18153;DHT22;9202;51.578;7.734;2022-09-12T14:57:02;25.00;99.90
18153;DHT22;9202;51.578;7.734;2022-09-12T14:59:29;25.00;99.90
18153;DHT22;9202;51.578;7.734;2022-09-12T15:03:50;24.90;99.90
18153;DHT22;9202;51.578;7.734;2022-09-12T15:05:55;25.00;99.90
18153;DHT22;9202;51.578;7.734;2022-09-12T15:08:00;25.00;99.90
18153;DHT22;9202;51.578;7.734;2022-09-12T15:10:15;25.00;99.90
18153;DHT22;9202;51.578;7.734;2022-09-12T15:12:11;24.90;99.90
18153;DHT22;9202;51.578;7.734;2022-09-12T15:14:15;25.10;99.90
18153;DHT22;9202;51.578;7.734;2022-09-12T15:16:19;25.00;99.90
18153;DHT22;9202;51.578;7.734;2022-09-12T15:18:24;24.90;99.90
18153;DHT22;9202;51.578;7.734;2022-09-12T15:20:27;24.90;99.90
18153;DHT22;9202;51.578;7.734;2022-09-12T15:24:47;25.00;99.90
18153;DHT22;9202;51.578;7.734;2022-09-12T15:26:51;25.20;99.90
18153;DHT22;9202;51.578;7.734;2022-09-12T15:28:55;25.30;99.90
18153;DHT22;9202;51.578;7.734;2022-09-12T15:31:02;25.40;99.90
18153;DHT22;9202;51.578;7.734;2022-09-12T15:33:08;25.20;99.90
18153;DHT22;9202;51.578;7.734;2022-09-12T15:35:14;25.10;99.90
18153;DHT22;9202;51.578;7.734;2022-09-12T15:37:19;25.10;99.90
18153;DHT22;9202;51.578;7.734;2022-09-12T15:39:22;25.00;99.90
18153;DHT22;9202;51.578;7.734;2022-09-12T15:43:45;24.90;99.90
18153;DHT22;9202;51.578;7.734;2022-09-12T15:48:05;25.00;99.90
18153;DHT22;9202;51.578;7.734;2022-09-12T15:50:09;25.30;99.90
18153;DHT22;9202;51.578;7.734;2022-09-12T15:52:14;25.50;99.90
18153;DHT22;9202;51.578;7.734;2022-09-12T15:54:19;25.40;99.90
18153;DHT22;9202;51.578;7.734;2022-09-12T15:56:23;25.20;99.90
18153;DHT22;9202;51.578;7.734;2022-09-12T15:58:26;25.20;99.90
18153;DHT22;9202;51.578;7.734;2022-09-12T16:02:49;25.00;99.90
18153;DHT22;9202;51.578;7.734;2022-09-12T16:04:53;24.90;99.90
18153;DHT22;9202;51.578;7.734;2022-09-12T16:06:57;24.90;99.90
18153;DHT22;9202;51.578;7.734;2022-09-12T16:09:00;25.00;99.90
18153;DHT22;9202;51.578;7.734;2022-09-12T16:11:07;24.90;99.90